sensor_id;sensor_type;location;lat;lon;timestamp;P1;durP1;ratioP1;P2;durP2;ratioP2
42006;SDS011;27696;42.704;23.304;2024-02-15T00:00:17;11.90;;;9.10;;
42006;SDS011;27696;42.704;23.304;2024-02-15T00:02:43;13.85;;;9.68;;
42006;SDS011;27696;42.704;23.304;2024-02-15T00:05:12;11.73;;;9.15;;
42006;SDS011;27696;42.704;23.304;2024-02-15T00:07:38;13.85;;;8.38;;
42006;SDS011;27696;42.704;23.304;2024-02-15T00:10:04;11.02;;;8.82;;
42006;SDS011;27696;42.704;23.304;2024-02-15T00:12:30;10.27;;;9.18;;
42006;SDS011;27696;42.704;23.304;2024-02-15T00:14:55;10.75;;;8.68;;
42006;SDS011;27696;42.704;23.304;2024-02-15T00:17:24;11.15;;;8.93;;
42006;SDS011;27696;42.704;23.304;2024-02-15T00:19:50;11.40;;;8.43;;
42006;SDS011;27696;42.704;23.304;2024-02-15T00:22:16;13.45;;;8.93;;
42006;SDS011;27696;42.704;23.304;2024-02-15T00:24:42;10.68;;;8.60;;
42006;SDS011;27696;42.704;23.304;2024-02-15T00:27:08;11.77;;;8.45;;
42006;SDS011;27696;42.704;23.304;2024-02-15T00:29:33;13.05;;;9.07;;
42006;SDS011;27696;42.704;23.304;2024-02-15T00:31:59;11.70;;;9.15;;
42006;SDS011;27696;42.704;23.304;2024-02-15T00:34:26;12.50;;;8.70;;
42006;SDS011;27696;42.704;23.304;2024-02-15T00:36:51;11.82;;;8.88;;
42006;SDS011;27696;42.704;23.304;2024-02-15T00:39:18;11.20;;;9.25;;
42006;SDS011;27696;42.704;23.304;2024-02-15T00:41:43;11.50;;;9.02;;
42006;SDS011;27696;42.704;23.304;2024-02-15T00:44:10;11.98;;;8.55;;
42006;SDS011;27696;42.704;23.304;2024-02-15T00:46:36;13.45;;;8.73;;
42006;SDS011;27696;42.704;23.304;2024-02-15T00:49:03;10.65;;;8.48;;
42006;SDS011;27696;42.704;23.304;2024-02-15T00:51:31;11.73;;;9.00;;
42006;SDS011;27696;42.704;23.304;2024-02-15T00:53:58;9.95;;;8.57;;
42006;SDS011;27696;42.704;23.304;2024-02-15T00:56:24;11.93;;;8.70;;
42006;SDS011;27696;42.704;23.304;2024-02-15T00:58:49;11.38;;;8.45;;
42006;SDS011;27696;42.704;23.304;2024-02-15T01:01:15;11.50;;;8.70;;
42006;SDS011;27696;42.704;23.304;2024-02-15T01:03:40;12.68;;;9.05;;
42006;SDS011;27696;42.704;23.304;2024-02-15T01:06:06;11.43;;;8.68;;
42006;SDS011;27696;42.704;23.304;2024-02-15T01:08:31;14.93;;;9.05;;
42006;SDS011;27696;42.704;23.304;2024-02-15T01:10:58;9.57;;;8.57;;
42006;SDS011;27696;42.704;23.304;2024-02-15T01:13:24;13.43;;;8.85;;
42006;SDS011;27696;42.704;23.304;2024-02-15T01:15:51;11.23;;;8.95;;
42006;SDS011;27696;42.704;23.304;2024-02-15T01:18:16;11.27;;;8.93;;
42006;SDS011;27696;42.704;23.304;2024-02-15T01:20:42;11.63;;;8.65;;
42006;SDS011;27696;42.704;23.304;2024-02-15T01:23:07;10.60;;;8.25;;
42006;SDS011;27696;42.704;23.304;2024-02-15T01:25:33;11.48;;;8.80;;
42006;SDS011;27696;42.704;23.304;2024-02-15T01:27:58;11.55;;;8.60;;
42006;SDS011;27696;42.704;23.304;2024-02-15T01:30:27;12.23;;;8.80;;
42006;SDS011;27696;42.704;23.304;2024-02-15T01:32:54;10.18;;;8.48;;
42006;SDS011;27696;42.704;23.304;2024-02-15T01:35:19;10.93;;;8.80;;
42006;SDS011;27696;42.704;23.304;2024-02-15T01:37:45;12.40;;;9.13;;
42006;SDS011;27696;42.704;23.304;2024-02-15T01:40:11;12.20;;;8.88;;
42006;SDS011;27696;42.704;23.304;2024-02-15T01:42:38;11.27;;;8.52;;
42006;SDS011;27696;42.704;23.304;2024-02-15T01:45:04;13.38;;;9.05;;
42006;SDS011;27696;42.704;23.304;2024-02-15T01:47:30;13.45;;;9.07;;
42006;SDS011;27696;42.704;23.304;2024-02-15T01:49:56;11.85;;;8.93;;
42006;SDS011;27696;42.704;23.304;2024-02-15T01:52:22;11.57;;;8.55;;
42006;SDS011;27696;42.704;23.304;2024-02-15T01:54:48;13.10;;;8.75;;
42006;SDS011;27696;42.704;23.304;2024-02-15T01:57:16;12.15;;;9.27;;
42006;SDS011;27696;42.704;23.304;2024-02-15T01:59:41;11.25;;;8.18;;
42006;SDS011;27696;42.704;23.304;2024-02-15T02:02:08;12.15;;;8.98;;
42006;SDS011;27696;42.704;23.304;2024-02-15T02:04:37;12.10;;;9.32;;
42006;SDS011;27696;42.704;23.304;2024-02-15T02:07:03;11.50;;;8.80;;
42006;SDS011;27696;42.704;23.304;2024-02-15T02:09:28;13.25;;;9.25;;
42006;SDS011;27696;42.704;23.304;2024-02-15T02:11:54;11.68;;;8.88;;
42006;SDS011;27696;42.704;23.304;2024-02-15T02:14:19;15.15;;;9.50;;
42006;SDS011;27696;42.704;23.304;2024-02-15T02:16:45;13.25;;;9.93;;
42006;SDS011;27696;42.704;23.304;2024-02-15T02:19:11;12.82;;;9.98;;
42006;SDS011;27696;42.704;23.304;2024-02-15T02:21:37;12.55;;;10.30;;
42006;SDS011;27696;42.704;23.304;2024-02-15T02:24:14;13.27;;;9.30;;
42006;SDS011;27696;42.704;23.304;2024-02-15T02:26:46;11.88;;;9.00;;
42006;SDS011;27696;42.704;23.304;2024-02-15T02:29:14;16.02;;;9.85;;
42006;SDS011;27696;42.704;23.304;2024-02-15T02:31:41;12.38;;;9.45;;
42006;SDS011;27696;42.704;23.304;2024-02-15T02:34:07;13.38;;;9.73;;
42006;SDS011;27696;42.704;23.304;2024-02-15T02:36:33;15.13;;;9.50;;
42006;SDS011;27696;42.704;23.304;2024-02-15T02:38:59;14.23;;;10.27;;
42006;SDS011;27696;42.704;23.304;2024-02-15T02:41:26;13.75;;;10.40;;
42006;SDS011;27696;42.704;23.304;2024-02-15T02:43:53;17.25;;;11.20;;
42006;SDS011;27696;42.704;23.304;2024-02-15T02:46:20;11.85;;;10.07;;
42006;SDS011;27696;42.704;23.304;2024-02-15T02:48:46;13.05;;;9.55;;
42006;SDS011;27696;42.704;23.304;2024-02-15T02:51:11;14.77;;;10.40;;
42006;SDS011;27696;42.704;23.304;2024-02-15T02:53:37;15.43;;;11.20;;
42006;SDS011;27696;42.704;23.304;2024-02-15T02:56:03;14.57;;;10.10;;
42006;SDS011;27696;42.704;23.304;2024-02-15T02:58:29;14.90;;;11.10;;
42006;SDS011;27696;42.704;23.304;2024-02-15T03:00:54;13.73;;;10.52;;
42006;SDS011;27696;42.704;23.304;2024-02-15T03:03:20;15.07;;;11.07;;
42006;SDS011;27696;42.704;23.304;2024-02-15T03:05:49;14.77;;;10.48;;
42006;SDS011;27696;42.704;23.304;2024-02-15T03:08:14;13.10;;;10.45;;
42006;SDS011;27696;42.704;23.304;2024-02-15T03:10:43;15.70;;;10.63;;
42006;SDS011;27696;42.704;23.304;2024-02-15T03:13:08;15.57;;;11.15;;
42006;SDS011;27696;42.704;23.304;2024-02-15T03:15:34;15.88;;;10.75;;
42006;SDS011;27696;42.704;23.304;2024-02-15T03:18:00;16.02;;;11.68;;
42006;SDS011;27696;42.704;23.304;2024-02-15T03:20:37;15.00;;;10.68;;
42006;SDS011;27696;42.704;23.304;2024-02-15T03:23:02;15.93;;;10.55;;
42006;SDS011;27696;42.704;23.304;2024-02-15T03:25:28;14.88;;;10.98;;
42006;SDS011;27696;42.704;23.304;2024-02-15T03:27:55;14.93;;;11.10;;
42006;SDS011;27696;42.704;23.304;2024-02-15T03:30:23;15.48;;;10.98;;
42006;SDS011;27696;42.704;23.304;2024-02-15T03:32:50;17.25;;;11.15;;
42006;SDS011;27696;42.704;23.304;2024-02-15T03:35:17;13.98;;;11.07;;
42006;SDS011;27696;42.704;23.304;2024-02-15T03:37:43;17.00;;;11.55;;
42006;SDS011;27696;42.704;23.304;2024-02-15T03:40:09;15.93;;;11.77;;
42006;SDS011;27696;42.704;23.304;2024-02-15T03:42:35;14.20;;;10.95;;
42006;SDS011;27696;42.704;23.304;2024-02-15T03:45:03;18.33;;;12.70;;
42006;SDS011;27696;42.704;23.304;2024-02-15T03:47:31;10.00;;;7.40;;
42006;SDS011;27696;42.704;23.304;2024-02-15T03:50:03;15.95;;;11.38;;
42006;SDS011;27696;42.704;23.304;2024-02-15T03:52:33;16.63;;;11.65;;
42006;SDS011;27696;42.704;23.304;2024-02-15T03:54:58;14.50;;;10.98;;
42006;SDS011;27696;42.704;23.304;2024-02-15T03:57:24;17.08;;;11.30;;
42006;SDS011;27696;42.704;23.304;2024-02-15T03:59:50;14.50;;;11.10;;
42006;SDS011;27696;42.704;23.304;2024-02-15T04:02:17;16.10;;;11.57;;
42006;SDS011;27696;42.704;23.304;2024-02-15T04:04:46;17.27;;;12.07;;
42006;SDS011;27696;42.704;23.304;2024-02-15T04:07:14;16.02;;;11.73;;
42006;SDS011;27696;42.704;23.304;2024-02-15T04:09:41;14.70;;;11.35;;
42006;SDS011;27696;42.704;23.304;2024-02-15T04:12:07;15.57;;;11.40;;
42006;SDS011;27696;42.704;23.304;2024-02-15T04:14:33;16.02;;;11.23;;
42006;SDS011;27696;42.704;23.304;2024-02-15T04:16:59;17.35;;;11.18;;
42006;SDS011;27696;42.704;23.304;2024-02-15T04:19:26;17.98;;;11.80;;
42006;SDS011;27696;42.704;23.304;2024-02-15T04:21:52;15.80;;;12.05;;
42006;SDS011;27696;42.704;23.304;2024-02-15T04:24:20;14.70;;;11.85;;
42006;SDS011;27696;42.704;23.304;2024-02-15T04:26:46;14.65;;;11.48;;
42006;SDS011;27696;42.704;23.304;2024-02-15T04:29:13;18.70;;;12.20;;
42006;SDS011;27696;42.704;23.304;2024-02-15T04:31:40;16.70;;;12.00;;
42006;SDS011;27696;42.704;23.304;2024-02-15T04:34:06;15.05;;;10.98;;
42006;SDS011;27696;42.704;23.304;2024-02-15T04:36:31;16.98;;;11.15;;
42006;SDS011;27696;42.704;23.304;2024-02-15T04:38:59;19.17;;;12.73;;
42006;SDS011;27696;42.704;23.304;2024-02-15T04:41:26;20.15;;;11.93;;
42006;SDS011;27696;42.704;23.304;2024-02-15T04:43:52;16.35;;;11.20;;
42006;SDS011;27696;42.704;23.304;2024-02-15T04:46:18;16.65;;;10.90;;
42006;SDS011;27696;42.704;23.304;2024-02-15T04:48:47;17.42;;;11.13;;
42006;SDS011;27696;42.704;23.304;2024-02-15T04:51:14;17.88;;;12.10;;
42006;SDS011;27696;42.704;23.304;2024-02-15T04:53:41;18.50;;;11.90;;
42006;SDS011;27696;42.704;23.304;2024-02-15T04:56:07;15.80;;;11.13;;
42006;SDS011;27696;42.704;23.304;2024-02-15T04:58:38;19.70;;;11.10;;
42006;SDS011;27696;42.704;23.304;2024-02-15T05:01:12;18.48;;;11.85;;
42006;SDS011;27696;42.704;23.304;2024-02-15T05:03:38;15.95;;;10.35;;
42006;SDS011;27696;42.704;23.304;2024-02-15T05:06:03;14.60;;;11.73;;
42006;SDS011;27696;42.704;23.304;2024-02-15T05:08:30;18.13;;;12.80;;
42006;SDS011;27696;42.704;23.304;2024-02-15T05:10:57;15.52;;;11.55;;
42006;SDS011;27696;42.704;23.304;2024-02-15T05:13:26;17.67;;;12.27;;
42006;SDS011;27696;42.704;23.304;2024-02-15T05:15:51;18.45;;;11.88;;
42006;SDS011;27696;42.704;23.304;2024-02-15T05:18:17;18.77;;;12.50;;
42006;SDS011;27696;42.704;23.304;2024-02-15T05:20:43;18.17;;;11.80;;
42006;SDS011;27696;42.704;23.304;2024-02-15T05:23:09;24.10;;;12.25;;
42006;SDS011;27696;42.704;23.304;2024-02-15T05:25:34;19.17;;;12.27;;
42006;SDS011;27696;42.704;23.304;2024-02-15T05:28:00;20.27;;;12.38;;
42006;SDS011;27696;42.704;23.304;2024-02-15T05:30:26;17.83;;;11.80;;
42006;SDS011;27696;42.704;23.304;2024-02-15T05:32:52;18.70;;;11.95;;
42006;SDS011;27696;42.704;23.304;2024-02-15T05:35:18;17.77;;;12.18;;
42006;SDS011;27696;42.704;23.304;2024-02-15T05:37:44;15.95;;;12.07;;
42006;SDS011;27696;42.704;23.304;2024-02-15T05:40:11;18.63;;;12.30;;
42006;SDS011;27696;42.704;23.304;2024-02-15T05:42:43;16.95;;;11.73;;
42006;SDS011;27696;42.704;23.304;2024-02-15T05:47:48;20.17;;;11.32;;
42006;SDS011;27696;42.704;23.304;2024-02-15T05:50:13;18.40;;;10.85;;
42006;SDS011;27696;42.704;23.304;2024-02-15T05:52:40;19.33;;;11.52;;
42006;SDS011;27696;42.704;23.304;2024-02-15T05:55:06;16.65;;;11.70;;
42006;SDS011;27696;42.704;23.304;2024-02-15T05:57:32;16.08;;;11.60;;
42006;SDS011;27696;42.704;23.304;2024-02-15T05:59:58;24.05;;;11.93;;
42006;SDS011;27696;42.704;23.304;2024-02-15T06:02:27;18.85;;;12.38;;
42006;SDS011;27696;42.704;23.304;2024-02-15T06:04:52;18.52;;;11.90;;
42006;SDS011;27696;42.704;23.304;2024-02-15T06:07:19;17.52;;;11.40;;
42006;SDS011;27696;42.704;23.304;2024-02-15T06:09:45;16.25;;;11.50;;
42006;SDS011;27696;42.704;23.304;2024-02-15T06:12:11;21.13;;;12.10;;
42006;SDS011;27696;42.704;23.304;2024-02-15T06:14:37;19.15;;;12.50;;
42006;SDS011;27696;42.704;23.304;2024-02-15T06:17:02;17.83;;;11.38;;
42006;SDS011;27696;42.704;23.304;2024-02-15T06:19:28;18.10;;;11.80;;
42006;SDS011;27696;42.704;23.304;2024-02-15T06:21:53;19.15;;;11.55;;
42006;SDS011;27696;42.704;23.304;2024-02-15T06:24:19;19.85;;;11.48;;
42006;SDS011;27696;42.704;23.304;2024-02-15T06:26:44;19.83;;;12.20;;
42006;SDS011;27696;42.704;23.304;2024-02-15T06:29:10;18.30;;;10.65;;
42006;SDS011;27696;42.704;23.304;2024-02-15T06:31:55;15.83;;;10.43;;
42006;SDS011;27696;42.704;23.304;2024-02-15T06:34:39;24.17;;;11.88;;
42006;SDS011;27696;42.704;23.304;2024-02-15T06:37:35;17.75;;;11.95;;
42006;SDS011;27696;42.704;23.304;2024-02-15T06:40:22;16.75;;;10.88;;
42006;SDS011;27696;42.704;23.304;2024-02-15T06:42:48;19.80;;;11.95;;
42006;SDS011;27696;42.704;23.304;2024-02-15T06:45:14;16.58;;;11.98;;
42006;SDS011;27696;42.704;23.304;2024-02-15T06:47:42;17.48;;;11.38;;
42006;SDS011;27696;42.704;23.304;2024-02-15T06:50:15;16.42;;;11.40;;
42006;SDS011;27696;42.704;23.304;2024-02-15T06:52:42;16.60;;;11.43;;
42006;SDS011;27696;42.704;23.304;2024-02-15T06:55:07;16.40;;;10.48;;
42006;SDS011;27696;42.704;23.304;2024-02-15T06:57:34;16.23;;;10.98;;
42006;SDS011;27696;42.704;23.304;2024-02-15T07:00:03;17.20;;;12.55;;
42006;SDS011;27696;42.704;23.304;2024-02-15T07:02:32;15.52;;;11.75;;
42006;SDS011;27696;42.704;23.304;2024-02-15T07:04:58;20.25;;;10.88;;
42006;SDS011;27696;42.704;23.304;2024-02-15T07:07:24;17.65;;;11.57;;
42006;SDS011;27696;42.704;23.304;2024-02-15T07:09:50;15.13;;;11.20;;
42006;SDS011;27696;42.704;23.304;2024-02-15T07:12:16;20.20;;;12.32;;
42006;SDS011;27696;42.704;23.304;2024-02-15T07:14:41;15.35;;;11.35;;
42006;SDS011;27696;42.704;23.304;2024-02-15T07:17:08;17.98;;;11.70;;
42006;SDS011;27696;42.704;23.304;2024-02-15T07:19:34;15.48;;;11.25;;
42006;SDS011;27696;42.704;23.304;2024-02-15T07:22:02;18.88;;;10.45;;
42006;SDS011;27696;42.704;23.304;2024-02-15T07:24:27;18.42;;;12.35;;
42006;SDS011;27696;42.704;23.304;2024-02-15T07:26:53;18.13;;;11.60;;
42006;SDS011;27696;42.704;23.304;2024-02-15T07:29:20;17.42;;;11.63;;
42006;SDS011;27696;42.704;23.304;2024-02-15T07:31:48;16.67;;;10.90;;
42006;SDS011;27696;42.704;23.304;2024-02-15T07:34:15;17.77;;;11.32;;
42006;SDS011;27696;42.704;23.304;2024-02-15T07:36:41;18.38;;;11.50;;
42006;SDS011;27696;42.704;23.304;2024-02-15T07:39:11;16.27;;;11.48;;
42006;SDS011;27696;42.704;23.304;2024-02-15T07:41:44;20.45;;;11.27;;
42006;SDS011;27696;42.704;23.304;2024-02-15T07:44:09;14.68;;;10.75;;
42006;SDS011;27696;42.704;23.304;2024-02-15T07:46:35;22.98;;;12.25;;
42006;SDS011;27696;42.704;23.304;2024-02-15T07:49:03;18.17;;;11.63;;
42006;SDS011;27696;42.704;23.304;2024-02-15T07:51:30;15.07;;;10.77;;
42006;SDS011;27696;42.704;23.304;2024-02-15T07:53:56;15.45;;;11.23;;
42006;SDS011;27696;42.704;23.304;2024-02-15T07:56:22;14.95;;;10.40;;
42006;SDS011;27696;42.704;23.304;2024-02-15T07:58:48;16.48;;;11.75;;
42006;SDS011;27696;42.704;23.304;2024-02-15T08:01:17;16.52;;;11.68;;
42006;SDS011;27696;42.704;23.304;2024-02-15T08:03:42;16.85;;;11.23;;
42006;SDS011;27696;42.704;23.304;2024-02-15T08:06:11;18.15;;;11.88;;
42006;SDS011;27696;42.704;23.304;2024-02-15T08:08:40;16.65;;;11.48;;
42006;SDS011;27696;42.704;23.304;2024-02-15T08:11:07;15.60;;;10.82;;
42006;SDS011;27696;42.704;23.304;2024-02-15T08:13:49;15.45;;;10.60;;
42006;SDS011;27696;42.704;23.304;2024-02-15T08:16:18;18.10;;;11.05;;
42006;SDS011;27696;42.704;23.304;2024-02-15T08:18:46;18.27;;;11.52;;
42006;SDS011;27696;42.704;23.304;2024-02-15T08:21:12;14.68;;;10.38;;
42006;SDS011;27696;42.704;23.304;2024-02-15T08:23:37;18.02;;;11.73;;
42006;SDS011;27696;42.704;23.304;2024-02-15T08:26:03;14.27;;;10.25;;
42006;SDS011;27696;42.704;23.304;2024-02-15T08:28:29;14.80;;;10.52;;
42006;SDS011;27696;42.704;23.304;2024-02-15T08:30:55;12.13;;;9.68;;
42006;SDS011;27696;42.704;23.304;2024-02-15T08:33:22;15.88;;;10.65;;
42006;SDS011;27696;42.704;23.304;2024-02-15T08:35:48;14.88;;;9.95;;
42006;SDS011;27696;42.704;23.304;2024-02-15T08:38:14;13.45;;;10.20;;
42006;SDS011;27696;42.704;23.304;2024-02-15T08:40:39;13.63;;;10.48;;
42006;SDS011;27696;42.704;23.304;2024-02-15T08:43:05;12.82;;;9.73;;
42006;SDS011;27696;42.704;23.304;2024-02-15T08:45:31;17.42;;;9.63;;
42006;SDS011;27696;42.704;23.304;2024-02-15T08:47:56;14.05;;;10.02;;
42006;SDS011;27696;42.704;23.304;2024-02-15T08:50:22;13.30;;;9.20;;
42006;SDS011;27696;42.704;23.304;2024-02-15T08:52:48;15.15;;;10.18;;
42006;SDS011;27696;42.704;23.304;2024-02-15T08:55:15;20.08;;;9.77;;
42006;SDS011;27696;42.704;23.304;2024-02-15T08:57:41;16.13;;;9.32;;
42006;SDS011;27696;42.704;23.304;2024-02-15T09:00:09;15.48;;;9.55;;
42006;SDS011;27696;42.704;23.304;2024-02-15T09:02:47;14.10;;;10.25;;
42006;SDS011;27696;42.704;23.304;2024-02-15T09:05:14;17.48;;;10.15;;
42006;SDS011;27696;42.704;23.304;2024-02-15T09:07:45;15.95;;;9.35;;
42006;SDS011;27696;42.704;23.304;2024-02-15T09:10:15;15.60;;;10.45;;
42006;SDS011;27696;42.704;23.304;2024-02-15T09:12:47;12.50;;;8.75;;
42006;SDS011;27696;42.704;23.304;2024-02-15T09:15:14;12.93;;;9.07;;
42006;SDS011;27696;42.704;23.304;2024-02-15T09:17:39;11.77;;;8.82;;
42006;SDS011;27696;42.704;23.304;2024-02-15T09:20:09;13.35;;;9.77;;
42006;SDS011;27696;42.704;23.304;2024-02-15T09:22:43;17.10;;;8.77;;
42006;SDS011;27696;42.704;23.304;2024-02-15T09:25:11;12.70;;;8.90;;
42006;SDS011;27696;42.704;23.304;2024-02-15T09:27:38;11.40;;;8.57;;
42006;SDS011;27696;42.704;23.304;2024-02-15T09:30:04;10.60;;;8.23;;
42006;SDS011;27696;42.704;23.304;2024-02-15T09:32:34;12.93;;;8.57;;
42006;SDS011;27696;42.704;23.304;2024-02-15T09:35:00;10.48;;;7.90;;
42006;SDS011;27696;42.704;23.304;2024-02-15T09:37:25;13.75;;;8.25;;
42006;SDS011;27696;42.704;23.304;2024-02-15T09:39:53;12.55;;;9.48;;
42006;SDS011;27696;42.704;23.304;2024-02-15T09:42:20;15.38;;;8.73;;
42006;SDS011;27696;42.704;23.304;2024-02-15T09:44:46;12.38;;;8.93;;
42006;SDS011;27696;42.704;23.304;2024-02-15T09:47:12;12.98;;;7.75;;
42006;SDS011;27696;42.704;23.304;2024-02-15T09:49:38;10.82;;;7.88;;
42006;SDS011;27696;42.704;23.304;2024-02-15T09:52:07;13.02;;;7.85;;
42006;SDS011;27696;42.704;23.304;2024-02-15T09:54:43;13.82;;;8.63;;
42006;SDS011;27696;42.704;23.304;2024-02-15T09:57:09;10.13;;;7.63;;
42006;SDS011;27696;42.704;23.304;2024-02-15T09:59:38;12.40;;;7.82;;
42006;SDS011;27696;42.704;23.304;2024-02-15T10:02:05;10.55;;;7.60;;
42006;SDS011;27696;42.704;23.304;2024-02-15T10:04:41;14.73;;;8.15;;
42006;SDS011;27696;42.704;23.304;2024-02-15T10:07:07;10.10;;;7.85;;
42006;SDS011;27696;42.704;23.304;2024-02-15T10:09:36;12.93;;;8.35;;
42006;SDS011;27696;42.704;23.304;2024-02-15T10:12:02;10.27;;;8.02;;
42006;SDS011;27696;42.704;23.304;2024-02-15T10:14:31;10.35;;;7.88;;
42006;SDS011;27696;42.704;23.304;2024-02-15T10:17:00;11.63;;;7.72;;
42006;SDS011;27696;42.704;23.304;2024-02-15T10:19:31;12.85;;;7.50;;
42006;SDS011;27696;42.704;23.304;2024-02-15T10:22:05;9.60;;;7.38;;
42006;SDS011;27696;42.704;23.304;2024-02-15T10:24:32;10.95;;;7.07;;
42006;SDS011;27696;42.704;23.304;2024-02-15T10:27:04;12.45;;;7.60;;
42006;SDS011;27696;42.704;23.304;2024-02-15T10:29:32;15.50;;;7.85;;
42006;SDS011;27696;42.704;23.304;2024-02-15T10:32:00;13.18;;;7.57;;
42006;SDS011;27696;42.704;23.304;2024-02-15T10:34:27;9.45;;;7.80;;
42006;SDS011;27696;42.704;23.304;2024-02-15T10:37:12;10.30;;;7.50;;
42006;SDS011;27696;42.704;23.304;2024-02-15T10:39:46;8.35;;;6.32;;
42006;SDS011;27696;42.704;23.304;2024-02-15T10:42:31;14.15;;;7.93;;
42006;SDS011;27696;42.704;23.304;2024-02-15T10:44:59;12.05;;;7.63;;
42006;SDS011;27696;42.704;23.304;2024-02-15T10:47:27;13.18;;;7.47;;
42006;SDS011;27696;42.704;23.304;2024-02-15T10:49:53;10.98;;;7.15;;
42006;SDS011;27696;42.704;23.304;2024-02-15T10:52:20;8.93;;;7.28;;
42006;SDS011;27696;42.704;23.304;2024-02-15T10:57:12;9.68;;;6.63;;
42006;SDS011;27696;42.704;23.304;2024-02-15T10:59:42;11.48;;;7.32;;
42006;SDS011;27696;42.704;23.304;2024-02-15T11:05:06;9.50;;;6.73;;
42006;SDS011;27696;42.704;23.304;2024-02-15T11:07:34;7.63;;;6.20;;
42006;SDS011;27696;42.704;23.304;2024-02-15T11:10:00;9.98;;;6.60;;
42006;SDS011;27696;42.704;23.304;2024-02-15T11:12:27;12.88;;;6.82;;
42006;SDS011;27696;42.704;23.304;2024-02-15T11:14:53;9.13;;;6.70;;
42006;SDS011;27696;42.704;23.304;2024-02-15T11:23:00;11.10;;;6.78;;
42006;SDS011;27696;42.704;23.304;2024-02-15T11:25:32;11.25;;;6.53;;
42006;SDS011;27696;42.704;23.304;2024-02-15T11:30:47;8.40;;;6.30;;
42006;SDS011;27696;42.704;23.304;2024-02-15T11:38:33;9.32;;;6.60;;
42006;SDS011;27696;42.704;23.304;2024-02-15T11:41:05;10.90;;;6.93;;
42006;SDS011;27696;42.704;23.304;2024-02-15T11:46:29;10.23;;;7.13;;
42006;SDS011;27696;42.704;23.304;2024-02-15T11:48:57;7.93;;;6.25;;
42006;SDS011;27696;42.704;23.304;2024-02-15T11:51:28;12.05;;;7.35;;
42006;SDS011;27696;42.704;23.304;2024-02-15T11:54:08;9.13;;;7.13;;
42006;SDS011;27696;42.704;23.304;2024-02-15T11:59:37;9.25;;;6.93;;
42006;SDS011;27696;42.704;23.304;2024-02-15T12:02:08;9.32;;;6.20;;
42006;SDS011;27696;42.704;23.304;2024-02-15T12:04:52;11.07;;;7.60;;
42006;SDS011;27696;42.704;23.304;2024-02-15T12:07:35;10.25;;;7.07;;
42006;SDS011;27696;42.704;23.304;2024-02-15T12:10:20;10.18;;;6.90;;
42006;SDS011;27696;42.704;23.304;2024-02-15T12:13:04;12.37;;;6.90;;
42006;SDS011;27696;42.704;23.304;2024-02-15T12:16:00;6.88;;;6.18;;
42006;SDS011;27696;42.704;23.304;2024-02-15T12:18:45;11.50;;;7.15;;
42006;SDS011;27696;42.704;23.304;2024-02-15T12:21:14;9.70;;;7.32;;
42006;SDS011;27696;42.704;23.304;2024-02-15T12:23:44;10.73;;;7.05;;
42006;SDS011;27696;42.704;23.304;2024-02-15T12:26:10;8.95;;;6.40;;
42006;SDS011;27696;42.704;23.304;2024-02-15T12:28:39;10.15;;;6.95;;
42006;SDS011;27696;42.704;23.304;2024-02-15T12:31:08;9.82;;;6.63;;
42006;SDS011;27696;42.704;23.304;2024-02-15T12:33:34;9.45;;;6.75;;
42006;SDS011;27696;42.704;23.304;2024-02-15T12:36:03;10.80;;;6.53;;
42006;SDS011;27696;42.704;23.304;2024-02-15T12:38:30;9.07;;;6.03;;
42006;SDS011;27696;42.704;23.304;2024-02-15T12:40:56;8.40;;;6.47;;
42006;SDS011;27696;42.704;23.304;2024-02-15T12:43:21;9.63;;;6.97;;
42006;SDS011;27696;42.704;23.304;2024-02-15T12:45:47;8.93;;;6.60;;
42006;SDS011;27696;42.704;23.304;2024-02-15T12:48:13;7.57;;;6.60;;
42006;SDS011;27696;42.704;23.304;2024-02-15T12:50:40;8.25;;;6.07;;
42006;SDS011;27696;42.704;23.304;2024-02-15T12:53:06;7.93;;;6.15;;
42006;SDS011;27696;42.704;23.304;2024-02-15T12:55:33;6.70;;;5.90;;
42006;SDS011;27696;42.704;23.304;2024-02-15T12:58:03;9.52;;;6.25;;
42006;SDS011;27696;42.704;23.304;2024-02-15T13:00:33;8.88;;;6.88;;
42006;SDS011;27696;42.704;23.304;2024-02-15T13:03:02;9.35;;;6.68;;
42006;SDS011;27696;42.704;23.304;2024-02-15T13:05:28;7.53;;;6.45;;
42006;SDS011;27696;42.704;23.304;2024-02-15T13:07:55;8.60;;;6.43;;
42006;SDS011;27696;42.704;23.304;2024-02-15T13:10:21;8.43;;;6.60;;
42006;SDS011;27696;42.704;23.304;2024-02-15T13:12:47;8.70;;;6.45;;
42006;SDS011;27696;42.704;23.304;2024-02-15T13:15:14;8.32;;;6.50;;
42006;SDS011;27696;42.704;23.304;2024-02-15T13:17:45;9.98;;;6.40;;
42006;SDS011;27696;42.704;23.304;2024-02-15T13:20:16;13.40;;;6.60;;
42006;SDS011;27696;42.704;23.304;2024-02-15T13:22:45;8.45;;;6.22;;
42006;SDS011;27696;42.704;23.304;2024-02-15T13:25:13;8.70;;;6.75;;
42006;SDS011;27696;42.704;23.304;2024-02-15T13:27:41;11.18;;;6.47;;
42006;SDS011;27696;42.704;23.304;2024-02-15T13:30:08;10.00;;;7.90;;
42006;SDS011;27696;42.704;23.304;2024-02-15T13:32:37;11.10;;;6.78;;
42006;SDS011;27696;42.704;23.304;2024-02-15T13:35:06;10.80;;;6.68;;
42006;SDS011;27696;42.704;23.304;2024-02-15T13:37:51;16.85;;;8.23;;
42006;SDS011;27696;42.704;23.304;2024-02-15T13:40:23;9.23;;;5.63;;
42006;SDS011;27696;42.704;23.304;2024-02-15T13:42:50;8.50;;;6.15;;
42006;SDS011;27696;42.704;23.304;2024-02-15T13:45:20;7.03;;;5.18;;
42006;SDS011;27696;42.704;23.304;2024-02-15T13:47:53;9.38;;;5.97;;
42006;SDS011;27696;42.704;23.304;2024-02-15T13:50:18;18.65;;;12.60;;
42006;SDS011;27696;42.704;23.304;2024-02-15T13:52:44;7.53;;;5.72;;
42006;SDS011;27696;42.704;23.304;2024-02-15T13:55:11;10.88;;;6.70;;
42006;SDS011;27696;42.704;23.304;2024-02-15T13:57:43;6.75;;;5.53;;
42006;SDS011;27696;42.704;23.304;2024-02-15T14:00:13;7.88;;;5.65;;
42006;SDS011;27696;42.704;23.304;2024-02-15T14:02:52;6.28;;;5.60;;
42006;SDS011;27696;42.704;23.304;2024-02-15T14:05:18;8.13;;;6.25;;
42006;SDS011;27696;42.704;23.304;2024-02-15T14:07:48;8.05;;;5.88;;
42006;SDS011;27696;42.704;23.304;2024-02-15T14:10:23;9.70;;;6.88;;
42006;SDS011;27696;42.704;23.304;2024-02-15T14:12:50;9.63;;;6.22;;
42006;SDS011;27696;42.704;23.304;2024-02-15T14:15:17;15.77;;;9.68;;
42006;SDS011;27696;42.704;23.304;2024-02-15T14:17:44;8.20;;;6.13;;
42006;SDS011;27696;42.704;23.304;2024-02-15T14:20:10;11.27;;;7.18;;
42006;SDS011;27696;42.704;23.304;2024-02-15T14:22:39;8.90;;;6.70;;
42006;SDS011;27696;42.704;23.304;2024-02-15T14:25:06;7.70;;;5.55;;
42006;SDS011;27696;42.704;23.304;2024-02-15T14:27:32;8.50;;;5.60;;
42006;SDS011;27696;42.704;23.304;2024-02-15T14:29:58;7.13;;;5.40;;
42006;SDS011;27696;42.704;23.304;2024-02-15T14:32:42;8.93;;;6.70;;
42006;SDS011;27696;42.704;23.304;2024-02-15T14:35:25;7.40;;;6.55;;
42006;SDS011;27696;42.704;23.304;2024-02-15T14:37:55;8.05;;;5.93;;
42006;SDS011;27696;42.704;23.304;2024-02-15T14:40:23;13.00;;;6.72;;
42006;SDS011;27696;42.704;23.304;2024-02-15T14:42:49;10.38;;;5.78;;
42006;SDS011;27696;42.704;23.304;2024-02-15T14:45:14;9.95;;;6.22;;
42006;SDS011;27696;42.704;23.304;2024-02-15T14:47:40;12.85;;;5.85;;
42006;SDS011;27696;42.704;23.304;2024-02-15T14:50:07;8.85;;;5.65;;